createdAt,value
2018-08-27T00:00:12.933Z,1.30
2018-08-27T00:02:43.028Z,1.40
2018-08-27T00:05:11.600Z,1.40
2018-08-27T00:07:39.996Z,1.40
2018-08-27T00:10:08.466Z,1.53
2018-08-27T00:12:36.854Z,1.63
2018-08-27T00:15:05.524Z,1.47
2018-08-27T00:17:33.919Z,2.00
2018-08-27T00:20:02.322Z,1.73
2018-08-27T00:22:30.741Z,1.90
2018-08-27T00:24:59.147Z,1.50
2018-08-27T00:27:27.534Z,1.73
2018-08-27T00:29:55.948Z,1.90
2018-08-27T00:32:24.372Z,1.70
2018-08-27T00:34:52.832Z,1.50
2018-08-27T00:37:21.260Z,1.80
2018-08-27T00:39:49.653Z,1.50
2018-08-27T00:42:18.141Z,1.97
2018-08-27T00:44:46.598Z,1.70
2018-08-27T00:47:15.001Z,1.97
2018-08-27T00:49:43.392Z,1.90
2018-08-27T00:52:11.948Z,1.67
2018-08-27T00:54:40.382Z,1.87
2018-08-27T00:57:08.809Z,1.80
2018-08-27T00:59:37.202Z,1.60
2018-08-27T01:02:05.809Z,2.10
2018-08-27T01:04:34.201Z,1.80
2018-08-27T01:07:02.604Z,1.60
2018-08-27T01:09:30.994Z,1.93
2018-08-27T01:11:59.388Z,1.90
2018-08-27T01:14:27.917Z,2.03
2018-08-27T01:16:56.304Z,1.90
2018-08-27T01:19:24.712Z,1.60
2018-08-27T01:21:53.129Z,2.10
2018-08-27T01:24:21.504Z,2.10
2018-08-27T01:26:49.980Z,2.07
2018-08-27T01:29:18.372Z,2.13
2018-08-27T01:31:51.968Z,2.00
2018-08-27T01:34:20.414Z,2.00
2018-08-27T01:36:48.813Z,2.30
2018-08-27T01:39:17.216Z,1.50
2018-08-27T01:41:45.618Z,2.10
2018-08-27T01:44:14.156Z,2.20
2018-08-27T01:46:42.578Z,2.40
2018-08-27T01:49:10.968Z,2.50
2018-08-27T01:51:39.504Z,2.77
2018-08-27T01:54:07.900Z,2.10
2018-08-27T01:56:36.287Z,2.73
2018-08-27T01:59:04.692Z,3.10
2018-08-27T02:01:33.152Z,2.70
2018-08-27T02:04:01.549Z,2.97
2018-08-27T02:06:35.416Z,3.50
2018-08-27T02:09:05.749Z,4.00
2018-08-27T02:11:34.157Z,3.20
2018-08-27T02:14:02.548Z,3.37
2018-08-27T02:16:30.935Z,3.37
2018-08-27T02:18:59.317Z,3.47
2018-08-27T02:21:27.729Z,3.27
2018-08-27T02:23:56.093Z,3.43
2018-08-27T02:26:25.929Z,3.47
2018-08-27T02:28:54.300Z,3.23
2018-08-27T02:31:22.884Z,3.17
2018-08-27T02:33:51.332Z,3.87
2018-08-27T02:36:19.736Z,4.37
2018-08-27T02:38:48.167Z,3.50
2018-08-27T02:41:16.590Z,3.10
2018-08-27T02:43:45.256Z,3.80
2018-08-27T02:46:13.828Z,4.10
2018-08-27T02:48:42.254Z,3.90
2018-08-27T02:51:10.648Z,3.60
2018-08-27T02:53:39.074Z,4.20
2018-08-27T02:56:07.508Z,4.70
2018-08-27T02:58:36.044Z,3.70
2018-08-27T03:01:04.456Z,4.10
2018-08-27T03:03:32.837Z,3.70
2018-08-27T03:06:01.224Z,4.00
2018-08-27T03:08:29.789Z,4.20
2018-08-27T03:10:58.196Z,3.83
2018-08-27T03:13:26.720Z,4.40
2018-08-27T03:15:55.209Z,3.97
2018-08-27T03:18:23.618Z,4.40
2018-08-27T03:20:51.944Z,4.47
2018-08-27T03:23:20.400Z,4.20
2018-08-27T03:25:48.788Z,4.10
2018-08-27T03:28:17.197Z,3.87
2018-08-27T03:30:45.600Z,4.30
2018-08-27T03:33:14.345Z,3.97
2018-08-27T03:35:42.764Z,4.20
2018-08-27T03:38:11.241Z,3.93
2018-08-27T03:40:39.680Z,4.23
2018-08-27T03:43:08.065Z,4.03
2018-08-27T03:45:36.561Z,4.00
2018-08-27T03:48:05.220Z,4.10
2018-08-27T03:50:33.621Z,4.97
2018-08-27T03:53:02.030Z,4.73
2018-08-27T03:55:30.409Z,4.40
2018-08-27T03:57:58.795Z,4.50
2018-08-27T04:00:27.189Z,4.60
2018-08-27T04:02:55.569Z,4.63
2018-08-27T04:05:24.029Z,4.63
2018-08-27T04:07:52.652Z,3.73
2018-08-27T04:10:21.119Z,4.10
2018-08-27T04:12:49.564Z,4.97
2018-08-27T04:15:18.013Z,4.60
2018-08-27T04:17:46.421Z,4.13
2018-08-27T04:20:14.826Z,3.80
2018-08-27T04:22:43.325Z,4.60
2018-08-27T04:25:11.725Z,3.80
2018-08-27T04:27:40.129Z,4.00
2018-08-27T04:30:08.921Z,4.00
2018-08-27T04:32:37.324Z,3.33
2018-08-27T04:35:05.929Z,3.60
2018-08-27T04:37:34.341Z,3.73
2018-08-27T04:40:02.804Z,3.53
2018-08-27T04:42:31.370Z,3.67
2018-08-27T04:44:59.720Z,3.93
2018-08-27T04:47:28.141Z,3.10
2018-08-27T04:49:56.565Z,3.57
2018-08-27T04:52:24.960Z,3.13
2018-08-27T04:54:53.373Z,3.60
2018-08-27T04:57:21.790Z,3.77
2018-08-27T04:59:53.776Z,3.53
2018-08-27T05:02:22.202Z,5.23
2018-08-27T05:04:50.612Z,3.70
2018-08-27T05:07:19.007Z,4.10
2018-08-27T05:09:47.403Z,4.13
2018-08-27T05:12:15.840Z,3.60
2018-08-27T05:14:44.218Z,3.27
2018-08-27T05:17:12.674Z,4.10
2018-08-27T05:19:41.064Z,3.23
2018-08-27T05:22:09.637Z,3.37
2018-08-27T05:24:38.241Z,3.30
2018-08-27T05:27:06.634Z,3.40
2018-08-27T05:29:35.099Z,3.80
2018-08-27T05:32:03.513Z,3.17
2018-08-27T05:34:31.913Z,3.43
2018-08-27T05:37:00.302Z,4.07
2018-08-27T05:39:28.732Z,3.20
2018-08-27T05:41:57.112Z,2.67
2018-08-27T05:44:25.521Z,3.10
2018-08-27T05:46:53.950Z,3.30
2018-08-27T05:49:22.340Z,3.33
2018-08-27T05:51:50.996Z,3.37
2018-08-27T05:54:19.603Z,3.43
2018-08-27T05:56:48.000Z,3.53
2018-08-27T05:59:20.709Z,3.63
2018-08-27T06:01:49.128Z,4.07
2018-08-27T06:04:17.501Z,3.53
2018-08-27T06:06:45.896Z,3.07
2018-08-27T06:09:14.371Z,2.80
2018-08-27T06:11:42.729Z,3.33
2018-08-27T06:14:11.333Z,3.10
2018-08-27T06:16:39.829Z,2.77
2018-08-27T06:19:08.149Z,2.93
2018-08-27T06:21:36.679Z,3.10
2018-08-27T06:24:05.217Z,3.17
2018-08-27T06:26:33.632Z,2.97
2018-08-27T06:29:02.032Z,2.93
2018-08-27T06:31:31.077Z,3.00
2018-08-27T06:33:59.453Z,3.13
2018-08-27T06:36:27.964Z,3.33
2018-08-27T06:38:56.498Z,3.27
2018-08-27T06:41:24.871Z,3.30
2018-08-27T06:43:53.288Z,3.33
2018-08-27T06:46:21.812Z,3.27
2018-08-27T06:48:50.091Z,3.10
2018-08-27T06:51:18.498Z,3.13
2018-08-27T06:53:46.913Z,2.67
2018-08-27T06:56:15.312Z,3.90
2018-08-27T06:58:43.717Z,3.17
2018-08-27T07:01:12.204Z,3.10
2018-08-27T07:03:40.611Z,2.80
2018-08-27T07:06:09.190Z,2.77
2018-08-27T07:08:37.722Z,2.80
2018-08-27T07:11:06.396Z,3.10
2018-08-27T07:13:34.789Z,3.10
2018-08-27T07:16:03.345Z,2.90
2018-08-27T07:18:31.756Z,2.60
2018-08-27T07:21:00.149Z,2.87
2018-08-27T07:23:28.585Z,2.73
2018-08-27T07:25:56.996Z,3.50
2018-08-27T07:28:25.725Z,3.33
2018-08-27T07:30:54.122Z,3.07
2018-08-27T07:33:22.514Z,3.40
2018-08-27T07:35:50.905Z,3.03
2018-08-27T07:38:19.340Z,2.77
2018-08-27T07:40:47.723Z,3.10
2018-08-27T07:43:16.180Z,3.53
2018-08-27T07:45:44.589Z,3.50
2018-08-27T07:48:12.992Z,3.40
2018-08-27T07:50:41.633Z,3.20
2018-08-27T07:53:10.048Z,3.50
2018-08-27T07:55:38.442Z,2.90
2018-08-27T07:58:06.869Z,2.80
2018-08-27T08:00:35.275Z,2.43
2018-08-27T08:03:03.701Z,2.90
2018-08-27T08:05:32.125Z,3.73
2018-08-27T08:08:00.547Z,3.07
2018-08-27T08:10:29.023Z,4.07
2018-08-27T08:12:57.565Z,4.10
2018-08-27T08:15:26.018Z,4.90
2018-08-27T08:17:54.606Z,4.60
2018-08-27T08:20:23.020Z,5.77
2018-08-27T08:22:51.479Z,4.63
2018-08-27T08:25:19.917Z,4.63
2018-08-27T08:27:48.379Z,4.80
2018-08-27T08:30:16.773Z,5.20
2018-08-27T08:32:45.165Z,4.47
2018-08-27T08:35:13.591Z,4.80
2018-08-27T08:37:42.001Z,4.90
2018-08-27T08:40:10.466Z,4.70
2018-08-27T08:42:38.821Z,4.33
2018-08-27T08:45:07.237Z,4.00
2018-08-27T08:47:35.672Z,4.67
2018-08-27T08:50:04.136Z,4.40
2018-08-27T08:52:32.532Z,3.70
2018-08-27T08:55:00.956Z,4.77
2018-08-27T08:57:29.343Z,4.27
2018-08-27T08:59:57.788Z,4.10
2018-08-27T09:02:26.242Z,4.23
2018-08-27T09:04:54.778Z,4.23
2018-08-27T09:07:23.315Z,4.30
2018-08-27T09:09:51.732Z,3.53
2018-08-27T09:12:20.557Z,4.80
2018-08-27T09:14:48.974Z,4.10
2018-08-27T09:17:17.524Z,4.20
2018-08-27T09:19:45.794Z,3.73
2018-08-27T09:22:14.403Z,4.07
2018-08-27T09:24:42.768Z,3.60
2018-08-27T09:27:11.181Z,3.93
2018-08-27T09:29:39.593Z,4.17
2018-08-27T09:32:08.010Z,3.57
2018-08-27T09:34:36.436Z,4.13
2018-08-27T09:37:04.904Z,4.90
2018-08-27T09:39:33.285Z,4.07
2018-08-27T09:42:01.810Z,4.20
2018-08-27T09:44:30.195Z,4.80
2018-08-27T09:46:58.729Z,4.57
2018-08-27T09:49:27.176Z,4.43
2018-08-27T09:51:55.577Z,5.30
2018-08-27T09:54:23.983Z,6.27
2018-08-27T09:56:52.384Z,4.60
2018-08-27T09:59:20.804Z,4.60
2018-08-27T10:01:54.733Z,5.33
2018-08-27T10:04:23.133Z,4.60
2018-08-27T10:06:51.589Z,4.30
2018-08-27T10:09:20.009Z,4.90
2018-08-27T10:11:48.416Z,4.30
2018-08-27T10:14:16.783Z,3.70
2018-08-27T10:16:45.373Z,4.20
2018-08-27T10:19:13.773Z,3.90
2018-08-27T10:21:42.416Z,4.40
2018-08-27T10:24:10.855Z,4.00
2018-08-27T10:26:39.262Z,4.63
2018-08-27T10:29:07.862Z,3.83
2018-08-27T10:31:36.877Z,4.40
2018-08-27T10:34:05.666Z,4.27
2018-08-27T10:36:34.174Z,4.30
2018-08-27T10:39:02.641Z,4.10
2018-08-27T10:41:31.037Z,4.77
2018-08-27T10:43:59.482Z,3.60
2018-08-27T10:46:27.893Z,4.20
2018-08-27T10:48:56.357Z,3.57
2018-08-27T10:51:24.780Z,3.80
2018-08-27T10:53:53.169Z,4.40
2018-08-27T10:56:21.581Z,3.97
2018-08-27T10:58:50.012Z,4.60
2018-08-27T11:01:18.439Z,3.67
2018-08-27T11:03:47.013Z,3.70
2018-08-27T11:06:15.526Z,3.80
2018-08-27T11:08:44.240Z,3.80
2018-08-27T11:11:12.709Z,3.80
2018-08-27T11:13:41.089Z,3.67
2018-08-27T11:16:09.559Z,3.23
2018-08-27T11:18:37.998Z,4.40
2018-08-27T11:21:06.548Z,4.10
2018-08-27T11:23:34.976Z,3.73
2018-08-27T11:26:03.417Z,3.80
2018-08-27T11:28:31.833Z,3.30
2018-08-27T11:31:00.348Z,4.47
2018-08-27T11:33:28.753Z,3.70
2018-08-27T11:35:57.155Z,3.70
2018-08-27T11:38:25.636Z,3.40
2018-08-27T11:40:54.030Z,3.93
2018-08-27T11:43:22.484Z,4.10
2018-08-27T11:45:50.871Z,3.70
2018-08-27T11:48:19.257Z,3.70
2018-08-27T11:50:47.776Z,3.50
2018-08-27T11:53:16.097Z,4.07
2018-08-27T11:55:44.561Z,3.87
2018-08-27T11:58:13.022Z,3.43
2018-08-27T12:00:46.849Z,4.50
2018-08-27T12:03:15.244Z,4.33
2018-08-27T12:05:43.652Z,3.80
2018-08-27T12:08:12.082Z,5.00
2018-08-27T12:10:40.493Z,4.17
2018-08-27T12:13:08.909Z,3.53
2018-08-27T12:15:37.336Z,4.73
2018-08-27T12:18:05.857Z,4.37
2018-08-27T12:20:34.249Z,3.90
2018-08-27T12:23:02.733Z,4.30
2018-08-27T12:25:31.170Z,4.13
2018-08-27T12:27:59.560Z,4.20
2018-08-27T12:30:27.997Z,4.77
2018-08-27T12:32:57.168Z,3.90
2018-08-27T12:35:25.592Z,4.40
2018-08-27T12:37:54.042Z,5.10
2018-08-27T12:40:22.641Z,4.07
2018-08-27T12:42:51.048Z,4.20
2018-08-27T12:45:19.487Z,4.87
2018-08-27T12:47:47.925Z,3.87
2018-08-27T12:50:16.440Z,4.67
2018-08-27T12:52:44.848Z,4.63
2018-08-27T12:55:13.343Z,4.07
2018-08-27T12:57:41.728Z,4.63
2018-08-27T13:00:15.761Z,4.27
2018-08-27T13:06:35.045Z,4.50
2018-08-27T13:09:04.073Z,4.40
2018-08-27T13:11:32.498Z,4.47
2018-08-27T13:14:00.929Z,4.73
2018-08-27T13:16:29.352Z,4.30
2018-08-27T13:18:57.919Z,4.83
2018-08-27T13:21:27.266Z,4.77
2018-08-27T13:23:56.300Z,4.33
2018-08-27T13:26:24.714Z,3.60
2018-08-27T13:28:53.128Z,4.73
2018-08-27T13:31:21.811Z,4.00
2018-08-27T13:33:50.160Z,4.43
2018-08-27T13:36:18.596Z,4.43
2018-08-27T13:38:47.500Z,3.93
2018-08-27T13:41:15.944Z,4.00
2018-08-27T13:43:44.339Z,4.27
2018-08-27T13:46:12.813Z,5.23
2018-08-27T13:48:41.287Z,4.60
2018-08-27T13:51:09.757Z,4.80
2018-08-27T13:53:38.157Z,4.67
2018-08-27T13:56:06.544Z,4.67
2018-08-27T13:58:34.949Z,4.87
2018-08-27T14:01:03.379Z,4.67
2018-08-27T14:03:31.776Z,4.70
2018-08-27T14:06:00.209Z,5.30
2018-08-27T14:08:28.624Z,5.10
2018-08-27T14:10:57.040Z,4.23
2018-08-27T14:13:25.475Z,4.90
2018-08-27T14:15:53.909Z,5.43
2018-08-27T14:18:22.309Z,4.70
2018-08-27T14:20:50.873Z,5.30
2018-08-27T14:23:19.309Z,4.57
2018-08-27T14:25:50.025Z,4.63
2018-08-27T14:28:18.400Z,4.90
2018-08-27T14:30:46.829Z,5.63
2018-08-27T14:33:15.262Z,5.30
2018-08-27T14:35:43.705Z,5.50
2018-08-27T14:38:12.188Z,4.37
2018-08-27T14:40:40.756Z,4.60
2018-08-27T14:43:09.125Z,4.53
2018-08-27T14:45:37.545Z,4.43
2018-08-27T14:48:06.046Z,4.57
2018-08-27T14:50:34.387Z,4.70
2018-08-27T14:53:02.778Z,5.80
2018-08-27T14:55:31.309Z,5.30
2018-08-27T14:57:59.689Z,5.13
2018-08-27T15:00:28.142Z,5.00
2018-08-27T15:02:56.560Z,4.90
2018-08-27T15:05:24.967Z,5.87
2018-08-27T15:07:53.409Z,5.70
2018-08-27T15:10:21.860Z,4.23
2018-08-27T15:12:52.268Z,5.10
2018-08-27T15:15:20.990Z,4.57
2018-08-27T15:17:49.392Z,4.63
2018-08-27T15:20:17.794Z,4.80
2018-08-27T15:22:46.268Z,5.40
2018-08-27T15:25:14.668Z,4.77
2018-08-27T15:27:43.154Z,4.90
2018-08-27T15:30:11.574Z,5.83
2018-08-27T15:32:40.004Z,5.03
2018-08-27T15:35:08.444Z,4.83
2018-08-27T15:37:36.825Z,4.63
2018-08-27T15:40:05.589Z,5.20
2018-08-27T15:42:34.009Z,4.77
2018-08-27T15:45:07.856Z,4.70
2018-08-27T15:47:37.368Z,4.43
2018-08-27T15:50:06.395Z,6.10
2018-08-27T15:52:34.750Z,4.20
2018-08-27T15:55:03.204Z,6.17
2018-08-27T15:57:31.790Z,4.97
2018-08-27T16:00:00.237Z,5.23
2018-08-27T16:02:28.642Z,5.27
2018-08-27T16:04:57.250Z,5.30
2018-08-27T16:07:25.665Z,4.83
2018-08-27T16:09:54.196Z,6.63
2018-08-27T16:12:22.609Z,5.53
2018-08-27T16:14:51.066Z,5.07
2018-08-27T16:17:19.509Z,5.40
2018-08-27T16:19:47.992Z,6.00
2018-08-27T16:22:16.453Z,5.90
2018-08-27T16:24:45.001Z,6.77
2018-08-27T16:27:13.441Z,5.70
2018-08-27T16:29:42.003Z,6.10
2018-08-27T16:32:10.436Z,5.83
2018-08-27T16:34:40.507Z,6.30
2018-08-27T16:37:08.958Z,6.10
2018-08-27T16:39:37.409Z,6.23
2018-08-27T16:42:05.798Z,5.67
2018-08-27T16:44:34.199Z,6.57
2018-08-27T16:47:02.845Z,6.23
2018-08-27T16:49:31.294Z,6.20
2018-08-27T16:51:59.714Z,6.27
2018-08-27T16:54:28.109Z,5.90
2018-08-27T16:56:56.517Z,6.00
2018-08-27T16:59:24.975Z,6.50
2018-08-27T17:01:53.397Z,6.57
2018-08-27T17:04:21.841Z,7.47
2018-08-27T17:06:50.243Z,6.73
2018-08-27T17:09:18.760Z,7.60
2018-08-27T17:11:47.237Z,7.00
2018-08-27T17:14:15.645Z,7.87
2018-08-27T17:16:44.089Z,9.17
2018-08-27T17:19:12.971Z,9.63
2018-08-27T17:21:41.428Z,7.70
2018-08-27T17:24:09.858Z,7.83
2018-08-27T17:26:38.356Z,8.40
2018-08-27T17:29:06.900Z,8.80
2018-08-27T17:31:35.319Z,7.60
2018-08-27T17:34:04.763Z,9.17
2018-08-27T17:36:33.310Z,7.60
2018-08-27T17:39:01.768Z,9.13
2018-08-27T17:41:30.227Z,8.00
2018-08-27T17:43:58.731Z,8.00
2018-08-27T17:46:27.158Z,8.80
2018-08-27T17:48:55.593Z,8.93
2018-08-27T17:51:24.090Z,8.00
2018-08-27T17:53:52.430Z,8.43
2018-08-27T17:56:20.876Z,8.27
2018-08-27T17:58:49.351Z,8.30
2018-08-27T18:01:17.773Z,8.10
2018-08-27T18:03:46.173Z,9.00
2018-08-27T18:06:15.055Z,7.97
2018-08-27T18:08:43.777Z,7.73
2018-08-27T18:11:12.565Z,8.40
2018-08-27T18:16:44.060Z,7.47
2018-08-27T18:19:12.473Z,8.77
2018-08-27T18:21:41.242Z,8.37
2018-08-27T18:24:09.871Z,7.17
2018-08-27T18:26:38.610Z,7.77
2018-08-27T18:29:07.398Z,8.50
2018-08-27T18:31:35.882Z,7.80
2018-08-27T18:34:04.288Z,8.00
2018-08-27T18:36:32.897Z,7.60
2018-08-27T18:39:01.777Z,8.47
2018-08-27T18:41:31.097Z,8.47
2018-08-27T18:44:00.637Z,8.47
2018-08-27T18:46:29.431Z,8.53
2018-08-27T18:48:58.415Z,8.20
2018-08-27T18:51:27.273Z,7.43
2018-08-27T18:53:56.196Z,8.43
2018-08-27T18:56:24.741Z,7.27
2018-08-27T18:58:53.177Z,8.40
2018-08-27T19:01:26.229Z,8.00
2018-08-27T19:03:55.038Z,7.97
2018-08-27T19:06:23.819Z,8.40
2018-08-27T19:08:52.926Z,8.77
2018-08-27T19:11:21.829Z,9.03
2018-08-27T19:13:50.702Z,9.17
2018-08-27T19:16:19.582Z,8.80
2018-08-27T19:18:48.369Z,7.70
2018-08-27T19:21:17.302Z,8.50
2018-08-27T19:23:46.251Z,7.77
2018-08-27T19:26:15.142Z,9.50
2018-08-27T19:28:44.235Z,7.87
2018-08-27T19:31:13.025Z,8.90
2018-08-27T19:33:41.813Z,8.00
2018-08-27T19:36:10.807Z,7.40
2018-08-27T19:38:39.591Z,7.33
2018-08-27T19:41:08.482Z,8.40
2018-08-27T19:43:37.377Z,7.60
2018-08-27T19:46:06.385Z,7.17
2018-08-27T19:48:34.673Z,6.23
2018-08-27T19:51:03.110Z,6.53
2018-08-27T19:53:31.597Z,5.80
2018-08-27T19:56:00.034Z,5.70
2018-08-27T19:58:28.482Z,5.70
2018-08-27T20:00:56.908Z,6.33
2018-08-27T20:03:25.326Z,5.60
2018-08-27T20:05:53.769Z,5.47
2018-08-27T20:08:22.253Z,5.50
2018-08-27T20:10:50.738Z,5.90
2018-08-27T20:13:19.175Z,5.70
2018-08-27T20:15:47.624Z,5.37
2018-08-27T20:18:16.092Z,5.13
2018-08-27T20:20:44.521Z,5.87
2018-08-27T20:23:13.000Z,5.63
2018-08-27T20:25:41.477Z,5.60
2018-08-27T20:28:09.866Z,4.90
2018-08-27T20:30:38.281Z,5.27
2018-08-27T20:33:06.779Z,5.40
2018-08-27T20:35:35.504Z,5.03
2018-08-27T20:38:03.976Z,5.37
2018-08-27T20:40:32.402Z,5.00
2018-08-27T20:43:00.944Z,5.07
2018-08-27T20:45:29.467Z,4.97
2018-08-27T20:47:57.993Z,5.27
2018-08-27T20:50:26.603Z,4.30
2018-08-27T20:52:54.993Z,5.33
2018-08-27T20:55:23.770Z,5.60
2018-08-27T20:57:52.161Z,5.33
2018-08-27T21:00:20.696Z,5.30
2018-08-27T21:02:49.351Z,5.90
2018-08-27T21:05:17.725Z,5.10
2018-08-27T21:07:46.145Z,5.10
2018-08-27T21:10:14.714Z,6.00
2018-08-27T21:12:43.110Z,5.17
2018-08-27T21:15:15.792Z,4.60
2018-08-27T21:17:45.781Z,5.30
2018-08-27T21:20:15.097Z,5.43
2018-08-27T21:22:43.678Z,4.47
2018-08-27T21:25:12.966Z,4.73
2018-08-27T21:27:42.169Z,4.80
2018-08-27T21:30:12.516Z,6.40
2018-08-27T21:32:41.032Z,13.67
2018-08-27T21:35:09.731Z,9.30
2018-08-27T21:37:38.140Z,6.07
2018-08-27T21:40:06.633Z,5.20
2018-08-27T21:42:35.327Z,5.17
2018-08-27T21:45:03.927Z,4.70
2018-08-27T21:47:32.392Z,4.90
2018-08-27T21:50:01.075Z,4.60
2018-08-27T21:52:30.292Z,5.33
2018-08-27T21:54:58.936Z,4.70
2018-08-27T21:57:27.533Z,4.70
2018-08-27T21:59:55.986Z,4.67
2018-08-27T22:02:29.977Z,4.23
2018-08-27T22:04:58.441Z,4.27
2018-08-27T22:07:27.024Z,5.07
2018-08-27T22:09:55.560Z,5.33
2018-08-27T22:12:24.284Z,5.27
2018-08-27T22:14:52.708Z,5.50
2018-08-27T22:17:21.158Z,5.73
2018-08-27T22:19:49.592Z,5.17
2018-08-27T22:22:18.097Z,5.90
2018-08-27T22:24:46.752Z,6.00
2018-08-27T22:27:15.664Z,5.57
2018-08-27T22:29:44.090Z,5.60
2018-08-27T22:32:12.509Z,5.77
2018-08-27T22:34:40.941Z,6.00
2018-08-27T22:37:09.344Z,5.30
2018-08-27T22:39:37.761Z,6.40
2018-08-27T22:42:06.452Z,5.80
2018-08-27T22:44:34.880Z,5.43
2018-08-27T22:47:03.564Z,5.93
2018-08-27T22:49:31.933Z,5.40
2018-08-27T22:52:00.592Z,6.27
2018-08-27T22:54:29.056Z,6.27
2018-08-27T22:56:57.452Z,5.67
2018-08-27T22:59:26.096Z,6.70
2018-08-27T23:01:54.508Z,6.97
2018-08-27T23:04:28.053Z,6.23
2018-08-27T23:06:56.471Z,6.87
2018-08-27T23:09:24.856Z,6.30
2018-08-27T23:11:53.276Z,7.70
2018-08-27T23:14:21.695Z,7.13
2018-08-27T23:16:50.089Z,6.60
2018-08-27T23:19:18.488Z,6.77
2018-08-27T23:21:46.875Z,5.50
2018-08-27T23:24:15.260Z,5.90
2018-08-27T23:26:43.708Z,6.03
2018-08-27T23:29:12.101Z,6.90
2018-08-27T23:31:40.528Z,5.83
2018-08-27T23:34:09.083Z,6.77
2018-08-27T23:36:37.468Z,6.67
2018-08-27T23:39:06.746Z,6.83
2018-08-27T23:41:35.144Z,7.00
2018-08-27T23:44:03.534Z,6.60
2018-08-27T23:46:31.976Z,7.60
2018-08-27T23:49:00.359Z,7.43
2018-08-27T23:51:29.679Z,6.33
2018-08-27T23:53:58.293Z,6.90
2018-08-27T23:56:26.692Z,6.93
2018-08-27T23:58:55.088Z,7.00
